sensor_id;sensor_type;location;lat;lon;timestamp;P1;durP1;ratioP1;P2;durP2;ratioP2
67841;SDS011;54642;59.126;37.876;2023-06-24T00:02:11;12.70;;;5.95;;
67841;SDS011;54642;59.126;37.876;2023-06-24T00:04:37;7.80;;;5.70;;
67841;SDS011;54642;59.126;37.876;2023-06-24T00:07:04;9.30;;;6.13;;
67841;SDS011;54642;59.126;37.876;2023-06-24T00:09:30;13.57;;;5.75;;
67841;SDS011;54642;59.126;37.876;2023-06-24T00:11:59;10.68;;;6.13;;
67841;SDS011;54642;59.126;37.876;2023-06-24T00:14:25;10.30;;;5.97;;
67841;SDS011;54642;59.126;37.876;2023-06-24T00:16:57;10.10;;;5.75;;
67841;SDS011;54642;59.126;37.876;2023-06-24T00:19:30;12.70;;;7.32;;
67841;SDS011;54642;59.126;37.876;2023-06-24T00:21:57;12.05;;;5.60;;
67841;SDS011;54642;59.126;37.876;2023-06-24T00:24:24;12.43;;;7.13;;
67841;SDS011;54642;59.126;37.876;2023-06-24T00:26:54;12.15;;;5.70;;
67841;SDS011;54642;59.126;37.876;2023-06-24T00:29:21;11.82;;;6.13;;
67841;SDS011;54642;59.126;37.876;2023-06-24T00:31:47;15.13;;;7.25;;
67841;SDS011;54642;59.126;37.876;2023-06-24T00:34:13;10.63;;;5.57;;
67841;SDS011;54642;59.126;37.876;2023-06-24T00:36:39;12.23;;;7.35;;
67841;SDS011;54642;59.126;37.876;2023-06-24T00:39:05;11.70;;;6.93;;
67841;SDS011;54642;59.126;37.876;2023-06-24T00:41:36;10.10;;;5.53;;
67841;SDS011;54642;59.126;37.876;2023-06-24T00:44:02;10.85;;;5.47;;
67841;SDS011;54642;59.126;37.876;2023-06-24T00:46:28;10.35;;;6.65;;
67841;SDS011;54642;59.126;37.876;2023-06-24T00:48:54;11.20;;;5.65;;
67841;SDS011;54642;59.126;37.876;2023-06-24T00:51:22;14.82;;;7.80;;
67841;SDS011;54642;59.126;37.876;2023-06-24T00:53:56;15.02;;;8.75;;
67841;SDS011;54642;59.126;37.876;2023-06-24T00:56:31;13.30;;;7.35;;
67841;SDS011;54642;59.126;37.876;2023-06-24T00:59:02;14.90;;;8.70;;
67841;SDS011;54642;59.126;37.876;2023-06-24T01:01:33;12.55;;;7.38;;
67841;SDS011;54642;59.126;37.876;2023-06-24T01:04:06;13.48;;;7.07;;
67841;SDS011;54642;59.126;37.876;2023-06-24T01:09:00;9.07;;;5.63;;
67841;SDS011;54642;59.126;37.876;2023-06-24T01:11:30;12.27;;;6.70;;
67841;SDS011;54642;59.126;37.876;2023-06-24T01:13:56;9.90;;;6.20;;
67841;SDS011;54642;59.126;37.876;2023-06-24T01:16:27;10.57;;;5.60;;
67841;SDS011;54642;59.126;37.876;2023-06-24T01:19:19;11.75;;;5.85;;
67841;SDS011;54642;59.126;37.876;2023-06-24T01:24:46;10.77;;;6.65;;
67841;SDS011;54642;59.126;37.876;2023-06-24T01:30:38;11.45;;;6.93;;
67841;SDS011;54642;59.126;37.876;2023-06-24T01:36:33;6.97;;;4.10;;
67841;SDS011;54642;59.126;37.876;2023-06-24T01:39:04;7.22;;;5.22;;
67841;SDS011;54642;59.126;37.876;2023-06-24T01:42:07;11.20;;;5.05;;
67841;SDS011;54642;59.126;37.876;2023-06-24T01:44:31;9.60;;;4.93;;
67841;SDS011;54642;59.126;37.876;2023-06-24T01:46:59;8.80;;;4.78;;
67841;SDS011;54642;59.126;37.876;2023-06-24T01:49:30;10.10;;;5.18;;
67841;SDS011;54642;59.126;37.876;2023-06-24T01:51:58;11.68;;;6.22;;
67841;SDS011;54642;59.126;37.876;2023-06-24T01:54:28;6.88;;;4.28;;
67841;SDS011;54642;59.126;37.876;2023-06-24T01:56:57;10.00;;;4.47;;
67841;SDS011;54642;59.126;37.876;2023-06-24T01:59:25;9.60;;;5.28;;
67841;SDS011;54642;59.126;37.876;2023-06-24T02:01:54;6.82;;;4.20;;
67841;SDS011;54642;59.126;37.876;2023-06-24T02:04:20;6.63;;;4.43;;
67841;SDS011;54642;59.126;37.876;2023-06-24T02:06:48;7.07;;;4.55;;
67841;SDS011;54642;59.126;37.876;2023-06-24T02:09:16;7.85;;;5.35;;
67841;SDS011;54642;59.126;37.876;2023-06-24T02:11:44;7.75;;;5.03;;
67841;SDS011;54642;59.126;37.876;2023-06-24T02:14:14;7.90;;;4.50;;
67841;SDS011;54642;59.126;37.876;2023-06-24T02:16:42;8.27;;;4.32;;
67841;SDS011;54642;59.126;37.876;2023-06-24T02:19:10;11.88;;;5.20;;
67841;SDS011;54642;59.126;37.876;2023-06-24T02:21:37;12.00;;;7.65;;
67841;SDS011;54642;59.126;37.876;2023-06-24T02:24:05;8.55;;;5.63;;
67841;SDS011;54642;59.126;37.876;2023-06-24T02:26:32;10.40;;;4.53;;
67841;SDS011;54642;59.126;37.876;2023-06-24T02:28:59;10.18;;;6.40;;
67841;SDS011;54642;59.126;37.876;2023-06-24T02:31:25;16.63;;;6.90;;
67841;SDS011;54642;59.126;37.876;2023-06-24T02:33:51;10.10;;;5.95;;
67841;SDS011;54642;59.126;37.876;2023-06-24T02:36:18;10.95;;;5.95;;
67841;SDS011;54642;59.126;37.876;2023-06-24T02:38:44;10.48;;;6.13;;
67841;SDS011;54642;59.126;37.876;2023-06-24T02:41:10;13.88;;;9.38;;
67841;SDS011;54642;59.126;37.876;2023-06-24T02:43:36;14.50;;;7.07;;
67841;SDS011;54642;59.126;37.876;2023-06-24T02:46:02;8.18;;;5.53;;
67841;SDS011;54642;59.126;37.876;2023-06-24T02:48:30;9.88;;;5.90;;
67841;SDS011;54642;59.126;37.876;2023-06-24T02:51:00;9.35;;;5.43;;
67841;SDS011;54642;59.126;37.876;2023-06-24T02:53:28;10.23;;;6.07;;
67841;SDS011;54642;59.126;37.876;2023-06-24T02:55:55;15.40;;;7.72;;
67841;SDS011;54642;59.126;37.876;2023-06-24T02:58:23;9.88;;;6.20;;
67841;SDS011;54642;59.126;37.876;2023-06-24T03:01:00;9.52;;;6.43;;
67841;SDS011;54642;59.126;37.876;2023-06-24T03:03:35;9.05;;;6.07;;
67841;SDS011;54642;59.126;37.876;2023-06-24T03:06:03;10.77;;;6.10;;
67841;SDS011;54642;59.126;37.876;2023-06-24T03:08:30;11.55;;;6.00;;
67841;SDS011;54642;59.126;37.876;2023-06-24T03:10:57;15.65;;;7.00;;
67841;SDS011;54642;59.126;37.876;2023-06-24T03:13:25;18.13;;;14.02;;
67841;SDS011;54642;59.126;37.876;2023-06-24T03:16:23;11.50;;;7.93;;
67841;SDS011;54642;59.126;37.876;2023-06-24T03:19:01;11.05;;;7.05;;
67841;SDS011;54642;59.126;37.876;2023-06-24T03:21:27;16.95;;;7.13;;
67841;SDS011;54642;59.126;37.876;2023-06-24T03:23:58;11.43;;;6.97;;
67841;SDS011;54642;59.126;37.876;2023-06-24T03:26:33;8.73;;;5.93;;
67841;SDS011;54642;59.126;37.876;2023-06-24T03:29:00;12.40;;;6.10;;
67841;SDS011;54642;59.126;37.876;2023-06-24T03:31:27;12.75;;;6.82;;
67841;SDS011;54642;59.126;37.876;2023-06-24T03:33:53;13.38;;;7.80;;
67841;SDS011;54642;59.126;37.876;2023-06-24T03:36:19;10.13;;;5.10;;
67841;SDS011;54642;59.126;37.876;2023-06-24T03:38:45;9.68;;;6.70;;
67841;SDS011;54642;59.126;37.876;2023-06-24T03:41:11;13.63;;;5.57;;
67841;SDS011;54642;59.126;37.876;2023-06-24T03:43:38;10.13;;;6.03;;
67841;SDS011;54642;59.126;37.876;2023-06-24T03:46:04;8.65;;;6.35;;
67841;SDS011;54642;59.126;37.876;2023-06-24T03:48:30;10.60;;;6.82;;
67841;SDS011;54642;59.126;37.876;2023-06-24T03:50:56;6.55;;;4.68;;
67841;SDS011;54642;59.126;37.876;2023-06-24T03:53:22;11.70;;;7.03;;
67841;SDS011;54642;59.126;37.876;2023-06-24T03:55:49;10.98;;;6.32;;
67841;SDS011;54642;59.126;37.876;2023-06-24T03:58:15;7.85;;;5.32;;
67841;SDS011;54642;59.126;37.876;2023-06-24T04:00:42;9.63;;;5.68;;
67841;SDS011;54642;59.126;37.876;2023-06-24T04:03:09;10.68;;;6.75;;
67841;SDS011;54642;59.126;37.876;2023-06-24T04:05:38;12.57;;;6.15;;
67841;SDS011;54642;59.126;37.876;2023-06-24T04:08:04;12.23;;;5.75;;
67841;SDS011;54642;59.126;37.876;2023-06-24T04:10:31;10.77;;;6.85;;
67841;SDS011;54642;59.126;37.876;2023-06-24T04:12:57;10.02;;;5.65;;
67841;SDS011;54642;59.126;37.876;2023-06-24T04:15:24;10.15;;;5.65;;
67841;SDS011;54642;59.126;37.876;2023-06-24T04:17:50;11.30;;;6.82;;
67841;SDS011;54642;59.126;37.876;2023-06-24T04:20:16;8.10;;;5.68;;
67841;SDS011;54642;59.126;37.876;2023-06-24T04:22:42;9.85;;;7.07;;
67841;SDS011;54642;59.126;37.876;2023-06-24T04:25:08;10.45;;;6.35;;
67841;SDS011;54642;59.126;37.876;2023-06-24T04:27:35;10.63;;;5.13;;
67841;SDS011;54642;59.126;37.876;2023-06-24T04:30:02;9.55;;;7.50;;
67841;SDS011;54642;59.126;37.876;2023-06-24T04:32:30;12.20;;;7.38;;
67841;SDS011;54642;59.126;37.876;2023-06-24T04:34:57;10.38;;;7.80;;
67841;SDS011;54642;59.126;37.876;2023-06-24T04:37:25;8.77;;;6.00;;
67841;SDS011;54642;59.126;37.876;2023-06-24T04:39:52;12.68;;;6.25;;
67841;SDS011;54642;59.126;37.876;2023-06-24T04:42:18;8.90;;;6.50;;
67841;SDS011;54642;59.126;37.876;2023-06-24T04:44:43;11.88;;;6.18;;
67841;SDS011;54642;59.126;37.876;2023-06-24T04:47:09;9.85;;;5.70;;
67841;SDS011;54642;59.126;37.876;2023-06-24T04:49:35;10.30;;;6.95;;
67841;SDS011;54642;59.126;37.876;2023-06-24T04:52:02;13.35;;;6.88;;
67841;SDS011;54642;59.126;37.876;2023-06-24T04:54:28;13.18;;;9.73;;
67841;SDS011;54642;59.126;37.876;2023-06-24T04:56:54;10.00;;;7.82;;
67841;SDS011;54642;59.126;37.876;2023-06-24T04:59:21;13.55;;;9.05;;
67841;SDS011;54642;59.126;37.876;2023-06-24T05:01:50;13.23;;;6.63;;
67841;SDS011;54642;59.126;37.876;2023-06-24T05:04:16;16.25;;;8.48;;
67841;SDS011;54642;59.126;37.876;2023-06-24T05:06:42;12.60;;;8.57;;
67841;SDS011;54642;59.126;37.876;2023-06-24T05:09:08;17.63;;;10.93;;
67841;SDS011;54642;59.126;37.876;2023-06-24T05:11:38;9.55;;;6.45;;
67841;SDS011;54642;59.126;37.876;2023-06-24T05:14:05;10.80;;;7.07;;
67841;SDS011;54642;59.126;37.876;2023-06-24T05:16:31;9.13;;;5.45;;
67841;SDS011;54642;59.126;37.876;2023-06-24T05:18:56;38.17;;;30.20;;
67841;SDS011;54642;59.126;37.876;2023-06-24T05:21:22;11.57;;;7.80;;
67841;SDS011;54642;59.126;37.876;2023-06-24T05:23:48;10.43;;;6.47;;
67841;SDS011;54642;59.126;37.876;2023-06-24T05:26:14;12.32;;;7.50;;
67841;SDS011;54642;59.126;37.876;2023-06-24T05:28:40;10.50;;;6.10;;
67841;SDS011;54642;59.126;37.876;2023-06-24T05:31:06;12.13;;;5.68;;
67841;SDS011;54642;59.126;37.876;2023-06-24T05:33:32;14.63;;;5.85;;
67841;SDS011;54642;59.126;37.876;2023-06-24T05:35:58;9.95;;;7.15;;
67841;SDS011;54642;59.126;37.876;2023-06-24T05:38:24;11.65;;;9.27;;
67841;SDS011;54642;59.126;37.876;2023-06-24T05:40:50;13.90;;;5.88;;
67841;SDS011;54642;59.126;37.876;2023-06-24T05:43:16;6.97;;;4.07;;
67841;SDS011;54642;59.126;37.876;2023-06-24T05:45:41;9.38;;;6.38;;
67841;SDS011;54642;59.126;37.876;2023-06-24T05:48:07;12.52;;;5.35;;
67841;SDS011;54642;59.126;37.876;2023-06-24T05:50:33;23.95;;;13.27;;
67841;SDS011;54642;59.126;37.876;2023-06-24T05:53:02;8.15;;;5.50;;
67841;SDS011;54642;59.126;37.876;2023-06-24T05:55:27;14.45;;;7.72;;
67841;SDS011;54642;59.126;37.876;2023-06-24T05:57:53;14.15;;;7.43;;
67841;SDS011;54642;59.126;37.876;2023-06-24T06:00:19;13.18;;;8.90;;
67841;SDS011;54642;59.126;37.876;2023-06-24T06:02:45;8.00;;;5.47;;
67841;SDS011;54642;59.126;37.876;2023-06-24T06:05:11;6.45;;;5.15;;
67841;SDS011;54642;59.126;37.876;2023-06-24T06:07:37;7.57;;;5.20;;
67841;SDS011;54642;59.126;37.876;2023-06-24T06:10:05;6.80;;;4.55;;
67841;SDS011;54642;59.126;37.876;2023-06-24T06:12:31;6.55;;;4.15;;
67841;SDS011;54642;59.126;37.876;2023-06-24T06:14:57;7.78;;;4.18;;
67841;SDS011;54642;59.126;37.876;2023-06-24T06:17:23;8.98;;;5.50;;
67841;SDS011;54642;59.126;37.876;2023-06-24T06:19:49;6.80;;;5.18;;
67841;SDS011;54642;59.126;37.876;2023-06-24T06:22:15;7.43;;;4.85;;
67841;SDS011;54642;59.126;37.876;2023-06-24T06:24:41;8.18;;;5.05;;
67841;SDS011;54642;59.126;37.876;2023-06-24T06:27:10;11.45;;;6.50;;
67841;SDS011;54642;59.126;37.876;2023-06-24T06:29:37;13.20;;;5.03;;
67841;SDS011;54642;59.126;37.876;2023-06-24T06:32:03;10.10;;;6.25;;
67841;SDS011;54642;59.126;37.876;2023-06-24T06:34:29;8.70;;;5.32;;
67841;SDS011;54642;59.126;37.876;2023-06-24T06:36:54;7.65;;;5.05;;
67841;SDS011;54642;59.126;37.876;2023-06-24T06:39:20;7.07;;;4.88;;
67841;SDS011;54642;59.126;37.876;2023-06-24T06:41:46;6.22;;;4.20;;
67841;SDS011;54642;59.126;37.876;2023-06-24T06:44:15;11.00;;;3.92;;
67841;SDS011;54642;59.126;37.876;2023-06-24T06:46:41;8.43;;;5.30;;
67841;SDS011;54642;59.126;37.876;2023-06-24T06:49:07;7.97;;;5.07;;
67841;SDS011;54642;59.126;37.876;2023-06-24T06:51:33;6.93;;;5.22;;
67841;SDS011;54642;59.126;37.876;2023-06-24T06:54:00;11.02;;;5.32;;
67841;SDS011;54642;59.126;37.876;2023-06-24T06:56:26;11.20;;;4.38;;
67841;SDS011;54642;59.126;37.876;2023-06-24T06:58:52;7.35;;;5.30;;
67841;SDS011;54642;59.126;37.876;2023-06-24T07:01:18;7.93;;;4.63;;
67841;SDS011;54642;59.126;37.876;2023-06-24T07:03:44;11.98;;;6.55;;
67841;SDS011;54642;59.126;37.876;2023-06-24T07:06:10;7.45;;;5.03;;
67841;SDS011;54642;59.126;37.876;2023-06-24T07:08:36;6.75;;;5.10;;
67841;SDS011;54642;59.126;37.876;2023-06-24T07:11:02;6.70;;;4.95;;
67841;SDS011;54642;59.126;37.876;2023-06-24T07:13:28;8.95;;;4.65;;
67841;SDS011;54642;59.126;37.876;2023-06-24T07:15:54;6.60;;;5.32;;
67841;SDS011;54642;59.126;37.876;2023-06-24T07:18:20;7.05;;;4.35;;
67841;SDS011;54642;59.126;37.876;2023-06-24T07:20:46;7.13;;;5.05;;
67841;SDS011;54642;59.126;37.876;2023-06-24T07:23:12;5.28;;;3.88;;
67841;SDS011;54642;59.126;37.876;2023-06-24T07:25:38;5.18;;;4.00;;
67841;SDS011;54642;59.126;37.876;2023-06-24T07:28:04;11.52;;;4.88;;
67841;SDS011;54642;59.126;37.876;2023-06-24T07:30:30;8.98;;;6.10;;
67841;SDS011;54642;59.126;37.876;2023-06-24T07:32:56;6.88;;;4.50;;
67841;SDS011;54642;59.126;37.876;2023-06-24T07:35:22;7.55;;;4.18;;
67841;SDS011;54642;59.126;37.876;2023-06-24T07:37:48;12.63;;;4.97;;
67841;SDS011;54642;59.126;37.876;2023-06-24T07:40:14;8.70;;;5.18;;
67841;SDS011;54642;59.126;37.876;2023-06-24T07:42:41;7.93;;;4.95;;
67841;SDS011;54642;59.126;37.876;2023-06-24T07:45:07;7.50;;;5.82;;
67841;SDS011;54642;59.126;37.876;2023-06-24T07:47:33;8.35;;;4.85;;
67841;SDS011;54642;59.126;37.876;2023-06-24T07:49:59;6.82;;;3.92;;
67841;SDS011;54642;59.126;37.876;2023-06-24T07:52:25;6.40;;;5.25;;
67841;SDS011;54642;59.126;37.876;2023-06-24T07:54:51;7.07;;;4.38;;
67841;SDS011;54642;59.126;37.876;2023-06-24T07:57:17;7.97;;;5.43;;
67841;SDS011;54642;59.126;37.876;2023-06-24T07:59:43;9.07;;;4.82;;
67841;SDS011;54642;59.126;37.876;2023-06-24T08:02:09;7.55;;;5.45;;
67841;SDS011;54642;59.126;37.876;2023-06-24T08:04:35;6.32;;;5.00;;
67841;SDS011;54642;59.126;37.876;2023-06-24T08:07:02;8.18;;;5.07;;
67841;SDS011;54642;59.126;37.876;2023-06-24T08:09:28;8.25;;;5.15;;
67841;SDS011;54642;59.126;37.876;2023-06-24T08:11:54;8.85;;;5.10;;
67841;SDS011;54642;59.126;37.876;2023-06-24T08:14:20;8.40;;;5.65;;
67841;SDS011;54642;59.126;37.876;2023-06-24T08:16:46;6.57;;;4.57;;
67841;SDS011;54642;59.126;37.876;2023-06-24T08:19:11;5.85;;;4.07;;
67841;SDS011;54642;59.126;37.876;2023-06-24T08:21:37;7.47;;;4.53;;
67841;SDS011;54642;59.126;37.876;2023-06-24T08:24:04;8.60;;;4.85;;
67841;SDS011;54642;59.126;37.876;2023-06-24T08:26:30;8.38;;;4.18;;
67841;SDS011;54642;59.126;37.876;2023-06-24T08:28:56;6.72;;;5.57;;
67841;SDS011;54642;59.126;37.876;2023-06-24T08:31:24;6.55;;;4.00;;
67841;SDS011;54642;59.126;37.876;2023-06-24T08:33:54;9.35;;;5.28;;
67841;SDS011;54642;59.126;37.876;2023-06-24T08:36:25;8.90;;;4.38;;
67841;SDS011;54642;59.126;37.876;2023-06-24T08:38:52;11.30;;;5.03;;
67841;SDS011;54642;59.126;37.876;2023-06-24T08:41:18;10.88;;;4.90;;
67841;SDS011;54642;59.126;37.876;2023-06-24T08:43:44;9.07;;;5.07;;
67841;SDS011;54642;59.126;37.876;2023-06-24T08:46:11;10.30;;;6.10;;
67841;SDS011;54642;59.126;37.876;2023-06-24T08:48:42;5.93;;;4.57;;
67841;SDS011;54642;59.126;37.876;2023-06-24T08:51:10;7.80;;;4.07;;
67841;SDS011;54642;59.126;37.876;2023-06-24T08:53:38;7.30;;;5.43;;
67841;SDS011;54642;59.126;37.876;2023-06-24T08:56:09;6.88;;;5.35;;
67841;SDS011;54642;59.126;37.876;2023-06-24T08:58:35;13.68;;;9.73;;
67841;SDS011;54642;59.126;37.876;2023-06-24T09:01:01;6.40;;;5.00;;
67841;SDS011;54642;59.126;37.876;2023-06-24T09:03:28;7.85;;;4.72;;
67841;SDS011;54642;59.126;37.876;2023-06-24T09:05:55;6.03;;;4.03;;
67841;SDS011;54642;59.126;37.876;2023-06-24T09:08:21;7.45;;;5.38;;
67841;SDS011;54642;59.126;37.876;2023-06-24T09:10:52;9.48;;;5.38;;
67841;SDS011;54642;59.126;37.876;2023-06-24T09:13:27;7.10;;;5.10;;
67841;SDS011;54642;59.126;37.876;2023-06-24T09:16:13;7.03;;;4.97;;
67841;SDS011;54642;59.126;37.876;2023-06-24T09:18:39;10.10;;;4.90;;
67841;SDS011;54642;59.126;37.876;2023-06-24T09:21:05;7.32;;;4.40;;
67841;SDS011;54642;59.126;37.876;2023-06-24T09:23:36;7.45;;;4.57;;
67841;SDS011;54642;59.126;37.876;2023-06-24T09:26:02;6.88;;;4.70;;
67841;SDS011;54642;59.126;37.876;2023-06-24T09:28:29;7.30;;;4.30;;
67841;SDS011;54642;59.126;37.876;2023-06-24T09:31:07;8.05;;;4.03;;
67841;SDS011;54642;59.126;37.876;2023-06-24T09:33:35;8.60;;;5.10;;
67841;SDS011;54642;59.126;37.876;2023-06-24T09:36:02;6.82;;;4.30;;
67841;SDS011;54642;59.126;37.876;2023-06-24T09:38:33;6.57;;;4.32;;
67841;SDS011;54642;59.126;37.876;2023-06-24T09:41:04;8.25;;;4.80;;
67841;SDS011;54642;59.126;37.876;2023-06-24T09:43:34;6.88;;;5.03;;
67841;SDS011;54642;59.126;37.876;2023-06-24T09:46:06;8.38;;;5.18;;
67841;SDS011;54642;59.126;37.876;2023-06-24T09:48:33;10.13;;;4.40;;
67841;SDS011;54642;59.126;37.876;2023-06-24T09:51:00;6.78;;;4.68;;
67841;SDS011;54642;59.126;37.876;2023-06-24T09:53:38;6.35;;;4.75;;
67841;SDS011;54642;59.126;37.876;2023-06-24T09:56:04;9.32;;;4.88;;
67841;SDS011;54642;59.126;37.876;2023-06-24T09:58:32;9.13;;;4.32;;
67841;SDS011;54642;59.126;37.876;2023-06-24T10:01:02;10.40;;;4.78;;
67841;SDS011;54642;59.126;37.876;2023-06-24T10:03:29;11.25;;;5.25;;
67841;SDS011;54642;59.126;37.876;2023-06-24T10:05:59;7.22;;;5.35;;
67841;SDS011;54642;59.126;37.876;2023-06-24T10:08:29;8.40;;;4.57;;
67841;SDS011;54642;59.126;37.876;2023-06-24T10:10:56;10.77;;;4.90;;
67841;SDS011;54642;59.126;37.876;2023-06-24T10:13:22;9.23;;;5.32;;
67841;SDS011;54642;59.126;37.876;2023-06-24T10:15:48;8.10;;;5.40;;
67841;SDS011;54642;59.126;37.876;2023-06-24T10:20:56;8.80;;;5.50;;
67841;SDS011;54642;59.126;37.876;2023-06-24T10:23:29;13.65;;;5.10;;
67841;SDS011;54642;59.126;37.876;2023-06-24T10:25:56;12.32;;;6.95;;
67841;SDS011;54642;59.126;37.876;2023-06-24T10:28:22;10.88;;;5.60;;
67841;SDS011;54642;59.126;37.876;2023-06-24T10:30:55;10.13;;;6.63;;
67841;SDS011;54642;59.126;37.876;2023-06-24T10:33:24;10.93;;;6.65;;
67841;SDS011;54642;59.126;37.876;2023-06-24T10:35:52;14.88;;;8.75;;
67841;SDS011;54642;59.126;37.876;2023-06-24T10:38:18;14.15;;;6.13;;
67841;SDS011;54642;59.126;37.876;2023-06-24T10:40:44;14.15;;;6.32;;
67841;SDS011;54642;59.126;37.876;2023-06-24T10:43:31;13.25;;;6.95;;
67841;SDS011;54642;59.126;37.876;2023-06-24T10:45:57;18.60;;;8.05;;
67841;SDS011;54642;59.126;37.876;2023-06-24T10:48:24;14.13;;;8.95;;
67841;SDS011;54642;59.126;37.876;2023-06-24T10:50:50;22.98;;;7.47;;
67841;SDS011;54642;59.126;37.876;2023-06-24T10:53:17;12.45;;;6.85;;
67841;SDS011;54642;59.126;37.876;2023-06-24T10:55:46;15.38;;;6.65;;
67841;SDS011;54642;59.126;37.876;2023-06-24T10:58:15;18.13;;;8.02;;
67841;SDS011;54642;59.126;37.876;2023-06-24T11:00:41;20.65;;;7.75;;
67841;SDS011;54642;59.126;37.876;2023-06-24T11:03:09;16.70;;;8.18;;
67841;SDS011;54642;59.126;37.876;2023-06-24T11:05:42;15.43;;;8.55;;
67841;SDS011;54642;59.126;37.876;2023-06-24T11:08:10;18.05;;;6.80;;
67841;SDS011;54642;59.126;37.876;2023-06-24T11:11:09;15.00;;;6.75;;
67841;SDS011;54642;59.126;37.876;2023-06-24T11:13:31;14.10;;;6.43;;
67841;SDS011;54642;59.126;37.876;2023-06-24T11:16:02;12.35;;;6.68;;
67841;SDS011;54642;59.126;37.876;2023-06-24T11:18:28;15.02;;;7.22;;
67841;SDS011;54642;59.126;37.876;2023-06-24T11:21:03;12.23;;;6.13;;
67841;SDS011;54642;59.126;37.876;2023-06-24T11:23:31;11.10;;;6.03;;
67841;SDS011;54642;59.126;37.876;2023-06-24T11:25:58;14.15;;;5.65;;
67841;SDS011;54642;59.126;37.876;2023-06-24T11:28:30;13.55;;;6.75;;
67841;SDS011;54642;59.126;37.876;2023-06-24T11:30:58;12.50;;;6.43;;
67841;SDS011;54642;59.126;37.876;2023-06-24T11:33:31;13.93;;;6.30;;
67841;SDS011;54642;59.126;37.876;2023-06-24T11:35:57;13.00;;;6.20;;
67841;SDS011;54642;59.126;37.876;2023-06-24T11:38:23;15.13;;;6.93;;
67841;SDS011;54642;59.126;37.876;2023-06-24T11:40:52;12.63;;;8.02;;
67841;SDS011;54642;59.126;37.876;2023-06-24T11:43:18;19.55;;;9.15;;
67841;SDS011;54642;59.126;37.876;2023-06-24T11:45:47;12.55;;;7.63;;
67841;SDS011;54642;59.126;37.876;2023-06-24T11:48:15;14.50;;;7.18;;
67841;SDS011;54642;59.126;37.876;2023-06-24T11:50:41;13.25;;;6.20;;
67841;SDS011;54642;59.126;37.876;2023-06-24T11:53:07;12.40;;;6.95;;
67841;SDS011;54642;59.126;37.876;2023-06-24T11:55:33;14.38;;;6.10;;
67841;SDS011;54642;59.126;37.876;2023-06-24T11:58:02;16.35;;;6.80;;
67841;SDS011;54642;59.126;37.876;2023-06-24T12:03:01;23.52;;;8.75;;
67841;SDS011;54642;59.126;37.876;2023-06-24T12:05:30;15.40;;;7.07;;
67841;SDS011;54642;59.126;37.876;2023-06-24T12:08:00;14.75;;;8.18;;
67841;SDS011;54642;59.126;37.876;2023-06-24T12:10:28;16.02;;;8.40;;
67841;SDS011;54642;59.126;37.876;2023-06-24T12:12:56;12.40;;;7.65;;
67841;SDS011;54642;59.126;37.876;2023-06-24T12:15:23;19.83;;;7.18;;
67841;SDS011;54642;59.126;37.876;2023-06-24T12:17:49;14.68;;;7.03;;
67841;SDS011;54642;59.126;37.876;2023-06-24T12:20:15;17.52;;;8.57;;
67841;SDS011;54642;59.126;37.876;2023-06-24T12:22:45;25.50;;;8.50;;
67841;SDS011;54642;59.126;37.876;2023-06-24T12:25:12;13.90;;;7.65;;
67841;SDS011;54642;59.126;37.876;2023-06-24T12:27:38;18.63;;;8.93;;
67841;SDS011;54642;59.126;37.876;2023-06-24T12:30:07;15.13;;;8.57;;
67841;SDS011;54642;59.126;37.876;2023-06-24T12:32:34;18.75;;;8.15;;
67841;SDS011;54642;59.126;37.876;2023-06-24T12:35:01;13.48;;;8.07;;
67841;SDS011;54642;59.126;37.876;2023-06-24T12:37:32;14.52;;;7.75;;
67841;SDS011;54642;59.126;37.876;2023-06-24T12:40:00;16.13;;;7.97;;
67841;SDS011;54642;59.126;37.876;2023-06-24T12:42:26;19.80;;;9.05;;
67841;SDS011;54642;59.126;37.876;2023-06-24T12:44:53;17.38;;;7.88;;
67841;SDS011;54642;59.126;37.876;2023-06-24T12:47:19;21.13;;;10.02;;
67841;SDS011;54642;59.126;37.876;2023-06-24T12:49:45;14.23;;;7.68;;
67841;SDS011;54642;59.126;37.876;2023-06-24T12:52:14;15.27;;;8.85;;
67841;SDS011;54642;59.126;37.876;2023-06-24T12:54:40;13.38;;;8.43;;
67841;SDS011;54642;59.126;37.876;2023-06-24T12:57:07;15.65;;;8.95;;
67841;SDS011;54642;59.126;37.876;2023-06-24T12:59:33;18.17;;;8.80;;
67841;SDS011;54642;59.126;37.876;2023-06-24T13:01:59;12.55;;;7.38;;
67841;SDS011;54642;59.126;37.876;2023-06-24T13:04:25;14.75;;;8.68;;
67841;SDS011;54642;59.126;37.876;2023-06-24T13:06:52;14.02;;;7.03;;
67841;SDS011;54642;59.126;37.876;2023-06-24T13:09:19;15.13;;;6.13;;
67841;SDS011;54642;59.126;37.876;2023-06-24T13:11:45;11.95;;;6.10;;
67841;SDS011;54642;59.126;37.876;2023-06-24T13:14:12;18.95;;;9.68;;
67841;SDS011;54642;59.126;37.876;2023-06-24T13:16:39;20.30;;;10.52;;
67841;SDS011;54642;59.126;37.876;2023-06-24T13:19:05;13.98;;;8.50;;
67841;SDS011;54642;59.126;37.876;2023-06-24T13:21:31;12.15;;;7.30;;
67841;SDS011;54642;59.126;37.876;2023-06-24T13:23:57;18.50;;;7.90;;
67841;SDS011;54642;59.126;37.876;2023-06-24T13:26:23;16.63;;;7.90;;
67841;SDS011;54642;59.126;37.876;2023-06-24T13:28:49;18.17;;;9.20;;
67841;SDS011;54642;59.126;37.876;2023-06-24T13:31:15;22.85;;;9.10;;
67841;SDS011;54642;59.126;37.876;2023-06-24T13:33:42;21.85;;;9.18;;
67841;SDS011;54642;59.126;37.876;2023-06-24T13:36:08;24.25;;;8.57;;
67841;SDS011;54642;59.126;37.876;2023-06-24T13:38:52;19.52;;;8.70;;
67841;SDS011;54642;59.126;37.876;2023-06-24T13:41:18;21.75;;;8.70;;
67841;SDS011;54642;59.126;37.876;2023-06-24T13:43:44;20.15;;;8.75;;
67841;SDS011;54642;59.126;37.876;2023-06-24T13:46:10;24.13;;;9.60;;
67841;SDS011;54642;59.126;37.876;2023-06-24T13:48:36;24.80;;;8.18;;
67841;SDS011;54642;59.126;37.876;2023-06-24T13:51:02;15.25;;;7.25;;
67841;SDS011;54642;59.126;37.876;2023-06-24T13:53:28;19.27;;;8.77;;
67841;SDS011;54642;59.126;37.876;2023-06-24T13:55:54;32.13;;;10.55;;
67841;SDS011;54642;59.126;37.876;2023-06-24T13:58:23;33.15;;;8.50;;
67841;SDS011;54642;59.126;37.876;2023-06-24T14:00:49;24.80;;;8.68;;
67841;SDS011;54642;59.126;37.876;2023-06-24T14:03:15;18.50;;;9.32;;
67841;SDS011;54642;59.126;37.876;2023-06-24T14:05:41;20.08;;;8.52;;
67841;SDS011;54642;59.126;37.876;2023-06-24T14:08:07;15.50;;;7.57;;
67841;SDS011;54642;59.126;37.876;2023-06-24T14:10:33;24.90;;;9.63;;
67841;SDS011;54642;59.126;37.876;2023-06-24T14:12:58;26.30;;;9.43;;
67841;SDS011;54642;59.126;37.876;2023-06-24T14:15:24;22.77;;;10.50;;
67841;SDS011;54642;59.126;37.876;2023-06-24T14:17:52;19.63;;;9.05;;
67841;SDS011;54642;59.126;37.876;2023-06-24T14:20:18;36.78;;;25.50;;
67841;SDS011;54642;59.126;37.876;2023-06-24T14:22:44;15.73;;;9.07;;
67841;SDS011;54642;59.126;37.876;2023-06-24T14:25:10;16.55;;;10.15;;
67841;SDS011;54642;59.126;37.876;2023-06-24T14:27:36;20.05;;;10.80;;
67841;SDS011;54642;59.126;37.876;2023-06-24T14:30:03;36.80;;;25.08;;
67841;SDS011;54642;59.126;37.876;2023-06-24T14:32:30;18.73;;;10.75;;
67841;SDS011;54642;59.126;37.876;2023-06-24T14:34:56;24.48;;;12.65;;
67841;SDS011;54642;59.126;37.876;2023-06-24T14:37:22;17.45;;;8.57;;
67841;SDS011;54642;59.126;37.876;2023-06-24T14:39:48;17.30;;;9.32;;
67841;SDS011;54642;59.126;37.876;2023-06-24T14:42:14;16.25;;;9.23;;
67841;SDS011;54642;59.126;37.876;2023-06-24T14:44:40;15.88;;;9.48;;
67841;SDS011;54642;59.126;37.876;2023-06-24T14:47:15;22.65;;;9.85;;